Accueil
METAR-TAF:

METAR-TAF

Aéroports :

Sallisaw, Oklahoma, États-Unis

latitude: 35-26-17N, longitude: 094-48-10W, altitude: 161 m

Observation

Le bulletin a été fait il y a 17 minutes, à 19:55 UTC
Vent 5 kt de est
Température 28°C
Humidité 70%
Pression 1015 hPa
Visibilité: 16.1 km
Ciel couvert à une hauteur de 2500 ft

METAR: KJSV 121955Z AUTO 08005KT 10SM OVC025 28/22 A2997 RMK AO2

Heure: 15:12 (20:12 UTC)


TAF: absent

Observations et prévisions météorologiques de plus de 4000 aéroports (messages METAR et TAF).

Les stations disponibles sont représentées par des disques jaunes et rouges sur la carte.

Passer la souris dessus pour voir le nom de la station.

Cliquer dessus pour voir les observations et prévisions météorologiques.

Pour changer de carte: cliquez sur les boutons verts avec une croix noire pour zoomer, sur le bouton vert avec un tiret pour effectuer un zoom arrière, ou sur les flèches vertes pour les cartes adjacentes.


METAR-TAF: